createdAt,value
2018-09-06T00:00:53.492Z,45.10
2018-09-06T00:03:22.230Z,46.03
2018-09-06T00:05:50.794Z,46.90
2018-09-06T00:08:19.411Z,46.27
2018-09-06T00:10:48.621Z,50.17
2018-09-06T00:13:17.125Z,47.87
2018-09-06T00:15:45.708Z,50.13
2018-09-06T00:18:14.123Z,49.37
2018-09-06T00:20:42.617Z,48.53
2018-09-06T00:23:11.088Z,51.30
2018-09-06T00:25:39.578Z,51.47
2018-09-06T00:28:08.064Z,50.27
2018-09-06T00:30:36.670Z,51.37
2018-09-06T00:33:05.109Z,50.97
2018-09-06T00:35:33.599Z,52.17
2018-09-06T00:38:02.018Z,51.07
2018-09-06T00:40:30.629Z,53.10
2018-09-06T00:42:59.160Z,51.47
2018-09-06T00:45:27.718Z,52.93
2018-09-06T00:47:56.183Z,53.47
2018-09-06T00:50:24.683Z,51.40
2018-09-06T00:52:53.737Z,51.07
2018-09-06T00:55:22.593Z,53.23
2018-09-06T00:57:51.052Z,49.40
2018-09-06T01:00:19.493Z,50.97
2018-09-06T01:02:47.941Z,50.50
2018-09-06T01:05:16.335Z,50.53
2018-09-06T01:07:44.780Z,53.13
2018-09-06T01:10:13.324Z,52.17
2018-09-06T01:12:41.939Z,52.43
2018-09-06T01:15:10.349Z,52.33
2018-09-06T01:17:38.873Z,52.23
2018-09-06T01:20:07.355Z,53.63
2018-09-06T01:22:35.865Z,55.40
2018-09-06T01:25:04.468Z,53.90
2018-09-06T01:27:33.032Z,55.53
2018-09-06T01:30:01.538Z,55.43
2018-09-06T01:32:30.040Z,54.17
2018-09-06T01:34:58.531Z,55.77
2018-09-06T01:37:26.993Z,54.73
2018-09-06T01:39:55.415Z,52.50
2018-09-06T01:42:23.823Z,54.73
2018-09-06T01:44:52.297Z,52.17
2018-09-06T01:47:20.809Z,53.13
2018-09-06T01:49:49.217Z,50.93
2018-09-06T01:52:17.657Z,52.50
2018-09-06T01:54:46.133Z,51.27
2018-09-06T01:57:14.513Z,51.33
2018-09-06T01:59:42.999Z,48.97
2018-09-06T02:02:11.523Z,52.17
2018-09-06T02:04:40.123Z,51.30
2018-09-06T02:07:08.612Z,50.90
2018-09-06T02:09:37.080Z,50.30
2018-09-06T02:12:05.687Z,49.90
2018-09-06T02:14:34.183Z,49.70
2018-09-06T02:17:02.699Z,48.27
2018-09-06T02:19:31.134Z,45.97
2018-09-06T02:21:59.556Z,48.37
2018-09-06T02:24:27.975Z,48.90
2018-09-06T02:26:56.487Z,51.30
2018-09-06T02:29:24.961Z,50.93
2018-09-06T02:31:53.405Z,49.93
2018-09-06T02:34:21.852Z,49.13
2018-09-06T02:36:50.333Z,46.13
2018-09-06T02:39:18.868Z,49.57
2018-09-06T02:41:47.517Z,53.80
2018-09-06T02:44:15.987Z,54.73
2018-09-06T02:46:44.429Z,55.23
2018-09-06T02:49:12.850Z,59.33
2018-09-06T02:51:41.368Z,61.37
2018-09-06T02:54:09.835Z,72.03
2018-09-06T02:56:38.276Z,76.43
2018-09-06T02:59:06.689Z,86.77
2018-09-06T03:01:35.173Z,87.10
2018-09-06T03:04:03.691Z,97.83
2018-09-06T03:06:32.123Z,92.40
2018-09-06T03:09:00.539Z,75.03
2018-09-06T03:12:32.011Z,70.90
2018-09-06T03:15:00.490Z,66.73
2018-09-06T03:17:28.933Z,71.60
2018-09-06T03:19:57.367Z,65.90
2018-09-06T03:22:25.978Z,81.90
2018-09-06T03:24:54.578Z,64.07
2018-09-06T03:27:23.352Z,73.20
2018-09-06T03:29:51.764Z,65.90
2018-09-06T03:32:20.369Z,55.40
2018-09-06T03:34:48.855Z,63.57
2018-09-06T03:37:17.444Z,67.97
2018-09-06T03:39:45.913Z,60.83
2018-09-06T03:42:14.462Z,65.17
2018-09-06T03:44:42.946Z,69.33
2018-09-06T03:47:11.442Z,66.27
2018-09-06T03:49:39.943Z,65.37
2018-09-06T03:52:08.430Z,65.43
2018-09-06T03:54:37.012Z,66.73
2018-09-06T03:57:06.076Z,58.47
2018-09-06T03:59:34.536Z,51.03
2018-09-06T04:02:03.156Z,51.57
2018-09-06T04:04:31.740Z,52.63
2018-09-06T04:07:00.286Z,51.17
2018-09-06T04:09:28.840Z,59.87
2018-09-06T04:11:57.338Z,56.87
2018-09-06T04:14:26.050Z,57.37
2018-09-06T04:16:54.503Z,52.53
2018-09-06T04:19:22.987Z,51.17
2018-09-06T04:21:51.530Z,50.17
2018-09-06T04:24:20.067Z,58.30
2018-09-06T04:26:48.516Z,54.03
2018-09-06T04:29:17.049Z,48.67
2018-09-06T04:31:45.541Z,60.30
2018-09-06T04:34:14.002Z,52.63
2018-09-06T04:36:42.525Z,61.43
2018-09-06T04:39:12.015Z,74.97
2018-09-06T04:41:40.728Z,64.87
2018-09-06T04:44:09.342Z,53.30
2018-09-06T04:46:37.935Z,55.27
2018-09-06T04:49:06.572Z,49.43
2018-09-06T04:51:35.045Z,63.00
2018-09-06T04:54:03.545Z,55.27
2018-09-06T04:56:31.951Z,76.20
2018-09-06T04:59:00.521Z,68.33
2018-09-06T05:01:29.049Z,69.67
2018-09-06T05:03:57.578Z,74.97
2018-09-06T05:06:26.039Z,61.00
2018-09-06T05:08:54.469Z,57.37
2018-09-06T05:11:23.043Z,54.63
2018-09-06T05:13:51.557Z,55.97
2018-09-06T05:16:20.061Z,74.07
2018-09-06T05:18:48.516Z,54.63
2018-09-06T05:21:17.137Z,57.40
2018-09-06T05:23:45.839Z,50.40
2018-09-06T05:26:14.434Z,54.07
2018-09-06T05:28:43.005Z,50.87
2018-09-06T05:31:11.501Z,46.63
2018-09-06T05:33:40.076Z,45.03
2018-09-06T05:36:08.651Z,44.33
2018-09-06T05:38:37.153Z,45.63
2018-09-06T05:41:06.003Z,47.57
2018-09-06T05:43:34.461Z,47.83
2018-09-06T05:46:03.020Z,46.33
2018-09-06T05:48:31.411Z,41.83
2018-09-06T05:50:59.821Z,41.40
2018-09-06T05:53:28.362Z,41.20
2018-09-06T05:55:56.751Z,39.90
2018-09-06T05:58:25.231Z,41.90
2018-09-06T06:00:53.753Z,40.20
2018-09-06T06:03:22.313Z,38.47
2018-09-06T06:05:50.991Z,38.63
2018-09-06T06:08:30.809Z,36.10
2018-09-06T06:10:59.269Z,35.63
2018-09-06T06:13:27.760Z,36.00
2018-09-06T06:15:56.342Z,37.47
2018-09-06T06:18:24.851Z,48.97
2018-09-06T06:20:53.294Z,50.67
2018-09-06T06:23:21.849Z,47.07
2018-09-06T06:25:50.345Z,47.53
2018-09-06T06:28:18.794Z,51.13
2018-09-06T06:30:47.357Z,44.17
2018-09-06T06:33:15.793Z,41.93
2018-09-06T06:35:44.262Z,42.33
2018-09-06T06:38:12.755Z,39.20
2018-09-06T06:40:41.371Z,39.23
2018-09-06T06:43:09.817Z,37.07
2018-09-06T06:45:38.261Z,39.23
2018-09-06T06:48:06.779Z,38.07
2018-09-06T06:50:35.305Z,38.73
2018-09-06T06:53:04.189Z,39.03
2018-09-06T06:55:32.773Z,36.23
2018-09-06T06:58:01.367Z,35.30
2018-09-06T07:00:30.101Z,35.03
2018-09-06T07:02:58.761Z,34.17
2018-09-06T07:05:27.255Z,30.30
2018-09-06T07:07:55.735Z,31.93
2018-09-06T07:10:24.176Z,30.83
2018-09-06T07:12:52.616Z,29.60
2018-09-06T07:15:21.054Z,30.13
2018-09-06T07:17:49.589Z,29.23
2018-09-06T07:20:18.091Z,29.03
2018-09-06T07:22:46.543Z,28.60
2018-09-06T07:25:14.958Z,27.90
2018-09-06T07:27:43.417Z,26.73
2018-09-06T07:30:11.958Z,27.93
2018-09-06T07:32:40.457Z,26.77
2018-09-06T07:35:08.973Z,27.53
2018-09-06T07:37:37.613Z,27.47
2018-09-06T07:40:06.292Z,28.37
2018-09-06T07:42:34.930Z,26.40
2018-09-06T07:45:03.866Z,27.53
2018-09-06T07:47:32.790Z,26.80
2018-09-06T07:50:01.901Z,24.37
2018-09-06T07:52:30.561Z,26.47
2018-09-06T07:54:59.153Z,26.00
2018-09-06T07:57:27.630Z,25.37
2018-09-06T07:59:56.076Z,25.67
2018-09-06T08:02:24.553Z,25.53
2018-09-06T08:04:53.115Z,23.53
2018-09-06T08:07:21.587Z,24.43
2018-09-06T08:09:50.314Z,24.50
2018-09-06T08:12:18.892Z,23.40
2018-09-06T08:14:47.645Z,22.87
2018-09-06T08:17:16.252Z,22.27
2018-09-06T08:19:45.130Z,24.00
2018-09-06T08:22:13.840Z,25.53
2018-09-06T08:24:42.536Z,23.00
2018-09-06T08:27:11.170Z,22.93
2018-09-06T08:29:39.626Z,21.47
2018-09-06T08:32:08.170Z,20.70
2018-09-06T08:34:36.711Z,21.07
2018-09-06T08:37:05.325Z,20.93
2018-09-06T08:39:33.923Z,21.20
2018-09-06T08:42:02.422Z,21.50
2018-09-06T08:44:30.918Z,20.87
2018-09-06T08:46:59.489Z,19.97
2018-09-06T08:49:28.105Z,20.73
2018-09-06T08:51:56.980Z,19.40
2018-09-06T08:54:25.438Z,18.77
2018-09-06T08:56:53.929Z,20.23
2018-09-06T08:59:22.551Z,18.87
2018-09-06T09:01:51.090Z,19.37
2018-09-06T09:04:19.796Z,18.03
2018-09-06T09:06:48.444Z,17.60
2018-09-06T09:09:16.962Z,17.80
2018-09-06T09:11:45.440Z,17.33
2018-09-06T09:14:13.919Z,18.57
2018-09-06T09:16:42.388Z,18.40
2018-09-06T09:19:11.039Z,17.37
2018-09-06T09:21:39.612Z,18.77
2018-09-06T09:24:08.069Z,17.53
2018-09-06T09:26:36.936Z,18.13
2018-09-06T09:29:05.561Z,19.37
2018-09-06T09:31:34.240Z,17.93
2018-09-06T09:34:02.801Z,18.57
2018-09-06T09:36:31.250Z,16.73
2018-09-06T09:38:59.762Z,18.00
2018-09-06T09:41:28.248Z,17.57
2018-09-06T09:43:57.048Z,17.60
2018-09-06T09:51:25.305Z,15.57
2018-09-06T09:53:53.847Z,15.00
2018-09-06T09:56:22.298Z,13.60
2018-09-06T09:58:50.887Z,14.73
2018-09-06T10:01:19.391Z,14.67
2018-09-06T10:03:53.187Z,13.60
2018-09-06T10:06:27.119Z,13.37
2018-09-06T10:09:01.131Z,12.83
2018-09-06T10:11:29.779Z,12.80
2018-09-06T10:13:59.182Z,12.77
2018-09-06T10:16:27.869Z,12.70
2018-09-06T10:18:56.463Z,13.27
2018-09-06T10:21:24.969Z,11.90
2018-09-06T10:23:53.536Z,12.30
2018-09-06T10:26:22.116Z,12.17
2018-09-06T10:28:50.613Z,12.70
2018-09-06T10:31:19.232Z,11.67
2018-09-06T10:33:48.279Z,11.30
2018-09-06T10:36:17.003Z,10.77
2018-09-06T10:38:45.556Z,11.47
2018-09-06T10:41:14.155Z,11.63
2018-09-06T10:43:42.671Z,11.87
2018-09-06T10:46:11.272Z,11.37
2018-09-06T10:48:39.727Z,10.37
2018-09-06T10:51:08.280Z,10.80
2018-09-06T10:53:37.360Z,11.17
2018-09-06T10:56:06.022Z,10.53
2018-09-06T10:58:34.708Z,9.90
2018-09-06T11:01:08.820Z,10.50
2018-09-06T11:03:37.469Z,10.50
2018-09-06T11:06:06.118Z,10.10
2018-09-06T11:08:34.593Z,10.97
2018-09-06T11:11:03.133Z,10.03
2018-09-06T11:13:31.602Z,9.70
2018-09-06T11:16:00.253Z,11.17
2018-09-06T11:18:28.914Z,10.70
2018-09-06T11:20:57.496Z,9.87
2018-09-06T11:23:25.973Z,9.60
2018-09-06T11:25:54.367Z,10.30
2018-09-06T11:28:22.935Z,10.60
2018-09-06T11:30:52.477Z,9.77
2018-09-06T11:33:21.045Z,10.37
2018-09-06T11:35:49.474Z,9.87
2018-09-06T11:38:18.029Z,10.13
2018-09-06T11:40:47.007Z,10.17
2018-09-06T11:43:15.639Z,10.13
2018-09-06T11:45:44.293Z,8.67
2018-09-06T11:48:13.180Z,9.70
2018-09-06T11:50:41.833Z,10.27
2018-09-06T11:53:10.521Z,10.47
2018-09-06T11:55:39.017Z,10.27
2018-09-06T11:58:07.537Z,10.17
2018-09-06T12:00:38.147Z,10.07
2018-09-06T12:03:06.768Z,12.30
2018-09-06T12:05:35.330Z,11.07
2018-09-06T12:08:03.903Z,9.93
2018-09-06T12:10:32.372Z,9.97
2018-09-06T12:13:00.890Z,9.70
2018-09-06T12:15:29.361Z,10.40
2018-09-06T12:17:57.824Z,10.00
2018-09-06T12:20:26.433Z,10.27
2018-09-06T12:22:55.108Z,10.23
2018-09-06T12:25:23.773Z,10.70
2018-09-06T12:27:52.466Z,10.83
2018-09-06T12:30:22.049Z,10.57
2018-09-06T12:32:50.713Z,10.63
2018-09-06T12:35:19.256Z,10.10
2018-09-06T12:37:47.811Z,10.17
2018-09-06T12:40:16.233Z,9.90
2018-09-06T12:42:45.116Z,10.43
2018-09-06T12:45:13.579Z,9.97
2018-09-06T12:47:42.521Z,10.27
2018-09-06T12:50:11.122Z,10.70
2018-09-06T12:52:39.835Z,9.50
2018-09-06T12:55:08.460Z,10.13
2018-09-06T12:57:36.906Z,9.13
2018-09-06T13:00:05.581Z,9.40
2018-09-06T13:02:34.145Z,9.97
2018-09-06T13:05:03.496Z,9.57
2018-09-06T13:07:31.976Z,9.53
2018-09-06T13:10:00.681Z,9.77
2018-09-06T13:12:29.336Z,9.73
2018-09-06T13:14:57.942Z,10.30
2018-09-06T13:17:26.461Z,9.73
2018-09-06T13:19:54.973Z,9.70
2018-09-06T13:22:23.512Z,9.13
2018-09-06T13:24:52.108Z,9.23
2018-09-06T13:27:20.717Z,9.33
2018-09-06T13:29:49.673Z,10.17
2018-09-06T13:32:18.111Z,9.90
2018-09-06T13:34:46.799Z,9.90
2018-09-06T13:37:15.246Z,11.30
2018-09-06T13:39:43.772Z,10.03
2018-09-06T13:42:12.218Z,10.37
2018-09-06T13:44:40.680Z,10.63
2018-09-06T13:47:09.202Z,10.57
2018-09-06T13:49:37.741Z,10.53
2018-09-06T13:52:06.345Z,10.03
2018-09-06T13:54:34.994Z,10.07
2018-09-06T13:57:03.588Z,10.77
2018-09-06T13:59:32.100Z,9.93
2018-09-06T14:02:00.574Z,10.33
2018-09-06T14:04:29.185Z,11.07
2018-09-06T14:06:57.660Z,11.63
2018-09-06T14:09:26.159Z,11.33
2018-09-06T14:11:54.669Z,11.43
2018-09-06T14:14:23.246Z,10.03
2018-09-06T14:16:51.721Z,9.73
2018-09-06T14:19:20.220Z,10.00
2018-09-06T14:21:48.712Z,10.73
2018-09-06T14:24:17.237Z,10.23
2018-09-06T14:26:45.842Z,10.70
2018-09-06T14:29:14.348Z,10.30
2018-09-06T14:31:43.117Z,11.00
2018-09-06T14:34:11.667Z,10.30
2018-09-06T14:36:40.261Z,11.20
2018-09-06T14:39:09.230Z,10.07
2018-09-06T14:41:37.985Z,10.50
2018-09-06T14:44:06.555Z,10.80
2018-09-06T14:46:35.058Z,11.03
2018-09-06T14:49:03.714Z,10.77
2018-09-06T14:51:32.255Z,11.03
2018-09-06T14:54:00.821Z,10.70
2018-09-06T14:56:29.353Z,9.70
2018-09-06T14:58:57.940Z,10.87
2018-09-06T15:01:26.572Z,10.87
2018-09-06T15:03:55.173Z,10.17
2018-09-06T15:06:23.739Z,10.67
2018-09-06T15:08:52.387Z,11.13
2018-09-06T15:11:21.208Z,10.93
2018-09-06T15:13:50.101Z,10.57
2018-09-06T15:16:18.723Z,10.10
2018-09-06T15:18:48.348Z,10.30
2018-09-06T15:21:17.757Z,11.20
2018-09-06T15:23:46.374Z,10.87
2018-09-06T15:26:14.931Z,10.73
2018-09-06T15:28:43.405Z,10.93
2018-09-06T15:31:11.930Z,10.97
2018-09-06T15:33:40.369Z,10.33
2018-09-06T15:36:08.995Z,12.00
2018-09-06T15:38:37.489Z,10.87
2018-09-06T15:41:06.136Z,10.40
2018-09-06T15:43:34.701Z,10.57
2018-09-06T15:46:03.194Z,10.60
2018-09-06T15:48:31.735Z,10.13
2018-09-06T15:51:00.199Z,10.10
2018-09-06T15:53:28.673Z,9.90
2018-09-06T15:55:57.445Z,10.23
2018-09-06T15:58:26.055Z,10.53
2018-09-06T16:00:54.649Z,10.17
2018-09-06T16:03:23.571Z,10.60
2018-09-06T16:05:52.111Z,9.67
2018-09-06T16:08:20.589Z,10.27
2018-09-06T16:10:49.062Z,10.57
2018-09-06T16:13:17.540Z,10.53
2018-09-06T16:15:46.078Z,11.30
2018-09-06T16:18:14.628Z,10.87
2018-09-06T16:20:43.214Z,10.83
2018-09-06T16:23:11.751Z,10.37
2018-09-06T16:25:40.209Z,10.17
2018-09-06T16:28:08.849Z,9.73
2018-09-06T16:30:37.381Z,10.40
2018-09-06T16:33:06.030Z,10.37
2018-09-06T16:35:34.969Z,10.47
2018-09-06T16:38:03.674Z,11.17
2018-09-06T16:40:32.381Z,10.63
2018-09-06T16:43:00.931Z,10.27
2018-09-06T16:45:29.641Z,10.40
2018-09-06T16:47:58.167Z,10.13
2018-09-06T16:50:26.704Z,10.60
2018-09-06T16:52:55.293Z,10.20
2018-09-06T16:55:23.975Z,11.63
2018-09-06T16:57:52.496Z,10.13
2018-09-06T17:00:21.094Z,10.63
2018-09-06T17:02:49.580Z,10.23
2018-09-06T17:05:18.242Z,10.40
2018-09-06T17:07:46.859Z,10.60
2018-09-06T17:10:15.685Z,11.70
2018-09-06T17:12:45.888Z,10.30
2018-09-06T17:15:14.467Z,11.30
2018-09-06T17:17:43.364Z,9.80
2018-09-06T17:20:11.884Z,10.63
2018-09-06T17:22:40.623Z,11.10
2018-09-06T17:25:09.352Z,10.57
2018-09-06T17:27:38.235Z,10.37
2018-09-06T17:30:06.881Z,10.60
2018-09-06T17:32:35.792Z,11.90
2018-09-06T17:35:04.743Z,11.20
2018-09-06T17:37:33.299Z,11.30
2018-09-06T17:40:01.846Z,11.17
2018-09-06T17:42:31.710Z,12.17
2018-09-06T17:45:00.303Z,12.27
2018-09-06T17:47:28.820Z,12.00
2018-09-06T17:49:57.406Z,12.43
2018-09-06T17:52:26.020Z,13.10
2018-09-06T17:54:54.520Z,13.23
2018-09-06T17:57:23.005Z,27.00
2018-09-06T17:59:51.508Z,14.70
2018-09-06T18:02:20.051Z,15.07
2018-09-06T18:04:49.080Z,14.00
2018-09-06T18:07:17.877Z,17.50
2018-09-06T18:09:46.574Z,14.10
2018-09-06T18:12:15.263Z,13.23
2018-09-06T18:14:44.023Z,12.20
2018-09-06T18:17:12.593Z,13.23
2018-09-06T18:19:41.194Z,12.83
2018-09-06T18:22:09.830Z,12.80
2018-09-06T18:24:38.553Z,13.10
2018-09-06T18:27:07.172Z,18.13
2018-09-06T18:29:35.773Z,14.77
2018-09-06T18:32:04.525Z,13.20
2018-09-06T18:34:33.082Z,12.97
2018-09-06T18:37:01.697Z,13.77
2018-09-06T18:39:30.616Z,13.33
2018-09-06T18:41:59.116Z,33.37
2018-09-06T18:44:28.054Z,15.03
2018-09-06T18:46:56.928Z,16.13
2018-09-06T18:49:26.140Z,14.40
2018-09-06T18:51:54.850Z,14.00
2018-09-06T18:54:23.553Z,14.63
2018-09-06T18:56:52.459Z,26.47
2018-09-06T18:59:22.932Z,17.13
2018-09-06T19:01:51.481Z,15.43
2018-09-06T19:04:19.984Z,15.50
2018-09-06T19:06:48.618Z,14.90
2018-09-06T19:09:17.193Z,15.87
2018-09-06T19:11:45.813Z,15.80
2018-09-06T19:14:14.573Z,15.00
2018-09-06T19:16:43.257Z,15.43
2018-09-06T19:19:11.807Z,16.27
2018-09-06T19:21:40.601Z,16.53
2018-09-06T19:24:09.697Z,15.73
2018-09-06T19:26:38.313Z,16.17
2018-09-06T19:29:06.835Z,16.23
2018-09-06T19:31:35.537Z,15.53
2018-09-06T19:34:05.837Z,15.13
2018-09-06T19:36:34.452Z,16.23
2018-09-06T19:39:03.209Z,14.70
2018-09-06T19:41:31.868Z,15.43
2018-09-06T19:44:00.436Z,17.03
2018-09-06T19:46:29.223Z,15.80
2018-09-06T19:48:57.899Z,15.47
2018-09-06T19:51:26.453Z,16.20
2018-09-06T19:53:55.026Z,15.50
2018-09-06T19:56:23.610Z,18.87
2018-09-06T19:58:52.754Z,18.07
2018-09-06T20:01:21.264Z,17.37
2018-09-06T20:03:49.741Z,16.80
2018-09-06T20:06:18.366Z,18.87
2018-09-06T20:08:46.975Z,17.10
2018-09-06T20:11:15.545Z,16.80
2018-09-06T20:13:44.140Z,16.30
2018-09-06T20:16:12.692Z,17.17
2018-09-06T20:18:41.238Z,16.83
2018-09-06T20:21:09.853Z,17.37
2018-09-06T20:23:38.672Z,16.70
2018-09-06T20:26:07.629Z,16.60
2018-09-06T20:28:36.389Z,17.53
2018-09-06T20:31:04.870Z,15.53
2018-09-06T20:33:33.429Z,17.73
2018-09-06T20:36:08.468Z,18.03
2018-09-06T20:38:37.026Z,18.40
2018-09-06T20:41:05.685Z,17.40
2018-09-06T20:43:34.244Z,18.20
2018-09-06T20:46:02.862Z,19.60
2018-09-06T20:48:31.428Z,17.80
2018-09-06T20:51:00.083Z,18.97
2018-09-06T20:53:28.591Z,18.07
2018-09-06T20:55:57.164Z,17.70
2018-09-06T20:58:25.699Z,17.93
2018-09-06T21:00:54.490Z,17.13
2018-09-06T21:03:22.968Z,17.30
2018-09-06T21:05:51.466Z,18.53
2018-09-06T21:08:20.029Z,18.93
2018-09-06T21:10:48.638Z,18.67
2018-09-06T21:13:17.210Z,17.63
2018-09-06T21:15:45.832Z,17.10
2018-09-06T21:18:14.368Z,17.23
2018-09-06T21:20:42.993Z,17.20
2018-09-06T21:23:11.527Z,16.43
2018-09-06T21:25:40.031Z,17.13
2018-09-06T21:28:08.498Z,17.90
2018-09-06T21:30:37.007Z,15.67
2018-09-06T21:33:05.621Z,16.83
2018-09-06T21:35:34.128Z,15.37
2018-09-06T21:38:02.752Z,16.43
2018-09-06T21:40:31.240Z,16.17
2018-09-06T21:42:59.749Z,16.10
2018-09-06T21:45:28.274Z,16.37
2018-09-06T21:47:56.823Z,16.60
2018-09-06T21:50:25.343Z,16.70
2018-09-06T21:52:53.928Z,16.97
2018-09-06T21:55:22.480Z,16.23
2018-09-06T21:57:51.170Z,16.13
2018-09-06T22:00:20.143Z,16.13
2018-09-06T22:02:54.023Z,15.50
2018-09-06T22:05:22.627Z,15.70
2018-09-06T22:07:51.188Z,14.97
2018-09-06T22:10:22.720Z,13.93
2018-09-06T22:12:52.942Z,14.10
2018-09-06T22:15:21.604Z,14.60
2018-09-06T22:17:50.132Z,14.90
2018-09-06T22:20:18.620Z,13.87
2018-09-06T22:22:47.169Z,14.00
2018-09-06T22:25:15.700Z,14.37
2018-09-06T22:27:44.366Z,12.37
2018-09-06T22:30:12.837Z,13.00
2018-09-06T22:32:41.399Z,12.37
2018-09-06T22:35:09.917Z,11.50
2018-09-06T22:37:38.410Z,11.87
2018-09-06T22:40:06.969Z,12.13
2018-09-06T22:42:35.891Z,11.57
2018-09-06T22:45:04.648Z,10.60
2018-09-06T22:47:33.266Z,11.47
2018-09-06T22:50:01.934Z,11.30
2018-09-06T22:52:30.529Z,11.87
2018-09-06T22:55:00.098Z,11.00
2018-09-06T22:57:29.417Z,11.63
2018-09-06T22:59:57.955Z,10.87
2018-09-06T23:02:30.742Z,11.20
2018-09-06T23:04:59.269Z,11.60
2018-09-06T23:07:27.837Z,10.60
2018-09-06T23:09:56.318Z,11.20
2018-09-06T23:12:24.850Z,10.90
2018-09-06T23:14:53.405Z,10.73
2018-09-06T23:17:21.944Z,10.30
2018-09-06T23:19:50.591Z,10.47
2018-09-06T23:22:19.056Z,10.30
2018-09-06T23:24:47.609Z,10.13
2018-09-06T23:27:16.028Z,9.77
2018-09-06T23:29:44.681Z,10.13
2018-09-06T23:32:13.120Z,10.47
2018-09-06T23:34:42.136Z,10.13
2018-09-06T23:37:10.614Z,10.37
2018-09-06T23:39:40.097Z,9.67
2018-09-06T23:42:09.391Z,9.90
2018-09-06T23:44:38.029Z,10.00
2018-09-06T23:47:07.681Z,9.20
2018-09-06T23:49:36.705Z,9.13
2018-09-06T23:52:05.323Z,9.33
2018-09-06T23:54:33.754Z,9.80
2018-09-06T23:57:02.251Z,9.33
2018-09-06T23:59:30.820Z,9.43
